< Cyclone 199801 1998 Season Cyclone 199803 >
Cyclone 199802 (SID)
General InformationTrack Information on Google MapsDetailed Wind InformationList of All Images || ResourceGoogle EarthGE AnimationAtom FeedGeoJSON
Detalied Best Track (Time Zone = UTC)
Year Month Day Hour Lat. Long. Pressure (hPa) Wind (kt) Class Image Chart
1997 12 24 18 -13.1 130.1 1005 25 2 Image --
1997 12 25 00 -12.6 129.7 1006 25 2 Image --
1997 12 25 06 -12.1 129.8 1003 25 2 Image --
1997 12 25 12 -11.5 130.2 1004 25 2 Image --
1997 12 25 18 -11.0 131.2 999 30 2 Image --
1997 12 26 00 -10.8 132.2 999 35 3 Image --
1997 12 26 03 -10.9 132.6 996 35 3 Image --
1997 12 26 06 -10.9 132.9 992 35 3 Image --
1997 12 26 12 -11.2 133.8 992 40 3 Image --
1997 12 26 18 -11.5 134.9 990 40 3 Image --
1997 12 27 00 -12.0 135.7 992 35 3 Image --
1997 12 27 03 -12.1 136.2 990 40 3 Image --
1997 12 27 06 -12.3 136.3 989 40 3 Image --
1997 12 27 09 -12.7 137.0 988 45 3 Image --
1997 12 27 12 -13.2 137.6 988 45 3 Image --
1997 12 27 18 -13.9 138.0 985 50 4 Image --
1997 12 28 00 -14.8 138.5 988 45 3 Image --
1997 12 28 06 -15.8 138.8 990 40 3 Image --
1997 12 28 09 -16.1 138.8 992 35 3 Image --
1997 12 28 12 -16.3 138.8 994 30 2 Image --
1997 12 28 18 -16.4 138.0 995 25 2 Image --
1997 12 29 00 -16.2 137.2 996 25 2 Image --
< Cyclone 199801 1998 Season Cyclone 199803 >

Help